Time;durP1;ratioP1;P1;durP2;ratioP2;P2;SDS_P1;SDS_P2;PMS_P1;PMS_P2;Temp;Humidity;BMP_temperature;BMP_pressure;BME280_temperature;BME280_humidity;BME280_pressure;Samples;Min_cycle;Max_cycle;Signal;HPM_P1;HPM_P2
2021/08/10 00:01:41;;;;;;;;;;;12.00;99.90;;;;;;5015830;28;19916;-80
2021/08/10 00:04:07;;;;;;;;;;;11.90;99.90;;;;;;5033458;28;20267;-80
2021/08/10 00:06:32;;;;;;;;;;;11.90;99.90;;;;;;5033569;28;20334;-80
2021/08/10 00:08:58;;;;;;;;;;;11.80;99.90;;;;;;5015454;28;19913;-80
2021/08/10 00:11:23;;;;;;;;;;;11.80;99.90;;;;;;5033249;28;20325;-80
2021/08/10 00:13:49;;;;;;;;;;;11.70;99.90;;;;;;5033346;28;19909;-80
2021/08/10 00:16:14;;;;;;;;;;;11.70;99.90;;;;;;5033034;28;19909;-80
2021/08/10 00:18:40;;;;;;;;;;;11.70;99.90;;;;;;5033152;28;20010;-80
2021/08/10 00:21:05;;;;;;;;;;;11.70;99.90;;;;;;5033139;28;19909;-80
2021/08/10 00:23:31;;;;;;;;;;;11.70;99.90;;;;;;5033260;28;20312;-80
2021/08/10 00:25:56;;;;;;;;;;;11.60;99.90;;;;;;5033214;28;19909;-80
2021/08/10 00:28:22;;;;;;;;;;;11.60;99.90;;;;;;5014793;28;20385;-80
2021/08/10 00:30:47;;;;;;;;;;;11.60;99.90;;;;;;5014899;28;19968;-80
2021/08/10 00:33:13;;;;;;;;;;;11.50;99.90;;;;;;5032851;28;19909;-79
2021/08/10 00:35:39;;;;;;;;;;;11.50;99.90;;;;;;5033718;28;19909;-80
2021/08/10 00:38:05;;;;;;;;;;;11.50;99.90;;;;;;5032623;28;19945;-80
2021/08/10 00:40:31;;;;;;;;;;;11.50;99.90;;;;;;5033385;28;19909;-80
2021/08/10 00:42:56;;;;;;;;;;;11.50;99.90;;;;;;5033106;28;19909;-80
2021/08/10 00:45:22;;;;;;;;;;;11.50;99.90;;;;;;5015077;28;19909;-80
2021/08/10 00:47:47;;;;;;;;;;;11.40;99.90;;;;;;5032194;28;20377;-80
2021/08/10 00:50:13;;;;;;;;;;;11.40;99.90;;;;;;5032871;28;19917;-80
2021/08/10 00:52:38;;;;;;;;;;;11.40;99.90;;;;;;5033359;28;19956;-79
2021/08/10 00:55:05;;;;;;;;;;;11.40;99.90;;;;;;5033000;28;19916;-80
2021/08/10 00:57:30;;;;;;;;;;;11.40;99.90;;;;;;5032853;28;19909;-79
2021/08/10 00:59:56;;;;;;;;;;;11.40;99.90;;;;;;5033168;28;19917;-80
2021/08/10 01:02:21;;;;;;;;;;;11.30;99.90;;;;;;5015944;28;20370;-79
2021/08/10 01:04:47;;;;;;;;;;;11.20;99.90;;;;;;5036995;28;19909;-80
2021/08/10 01:07:12;;;;;;;;;;;11.20;99.90;;;;;;5018427;28;20327;-79
2021/08/10 01:09:52;;;;;;;;;;;11.20;99.90;;;;;;5036598;28;19913;-80
2021/08/10 01:12:52;;;;;;;;;;;11.10;99.90;;;;;;5036183;28;20063;-79
2021/08/10 01:15:20;;;;;;;;;;;11.20;99.90;;;;;;4986986;28;19913;-79
2021/08/10 01:17:54;;;;;;;;;;;11.10;99.90;;;;;;5036558;28;19909;-79
2021/08/10 01:20:25;;;;;;;;;;;11.10;99.90;;;;;;5036638;28;19954;-79
2021/08/10 01:22:53;;;;;;;;;;;11.10;99.90;;;;;;5036623;28;19913;-79
2021/08/10 01:25:19;;;;;;;;;;;11.10;99.90;;;;;;5036938;28;19913;-79
2021/08/10 01:28:12;;;;;;;;;;;11.10;99.90;;;;;;5036737;28;19909;-79
2021/08/10 01:30:56;;;;;;;;;;;11.10;99.90;;;;;;5017293;28;20468;-79
2021/08/10 01:33:22;;;;;;;;;;;11.10;99.90;;;;;;5036049;28;19916;-80
2021/08/10 01:35:48;;;;;;;;;;;11.10;99.90;;;;;;5036634;28;19913;-79
2021/08/10 01:38:15;;;;;;;;;;;11.10;99.90;;;;;;5035535;28;19910;-79
2021/08/10 01:40:42;;;;;;;;;;;11.10;99.90;;;;;;5034570;28;19913;-79
2021/08/10 01:43:07;;;;;;;;;;;11.00;99.90;;;;;;5034766;28;19909;-79
2021/08/10 01:45:37;;;;;;;;;;;11.00;99.90;;;;;;5034371;28;19988;-79
2021/08/10 01:48:05;;;;;;;;;;;11.00;99.90;;;;;;5016685;28;19913;-79
2021/08/10 01:50:31;;;;;;;;;;;11.00;99.90;;;;;;5034934;28;19920;-79
2021/08/10 01:52:57;;;;;;;;;;;11.00;99.90;;;;;;5018289;28;19909;-79
2021/08/10 01:55:23;;;;;;;;;;;11.00;99.90;;;;;;5017949;28;19909;-79
2021/08/10 01:57:49;;;;;;;;;;;11.00;99.90;;;;;;5034467;28;20468;-79
2021/08/10 02:00:15;;;;;;;;;;;11.00;99.90;;;;;;5033321;28;19996;-79
2021/08/10 02:02:44;;;;;;;;;;;11.00;99.90;;;;;;5033209;28;19909;-79
2021/08/10 02:05:10;;;;;;;;;;;10.90;99.90;;;;;;5033342;28;19913;-79
2021/08/10 02:07:36;;;;;;;;;;;10.90;99.90;;;;;;5033023;28;20288;-79
2021/08/10 02:10:03;;;;;;;;;;;10.90;99.90;;;;;;5033123;28;19960;-79
2021/08/10 02:12:28;;;;;;;;;;;10.80;99.90;;;;;;5026975;28;20591;-79
2021/08/10 02:14:55;;;;;;;;;;;10.80;99.90;;;;;;5032521;28;19996;-79
2021/08/10 02:17:20;;;;;;;;;;;10.80;99.90;;;;;;5032827;28;20381;-77
2021/08/10 02:19:46;;;;;;;;;;;10.70;99.90;;;;;;5032152;28;19913;-77
2021/08/10 02:22:13;;;;;;;;;;;10.70;99.90;;;;;;5033348;28;19909;-76
2021/08/10 02:24:38;;;;;;;;;;;10.70;99.90;;;;;;5033365;28;19920;-77
2021/08/10 02:27:06;;;;;;;;;;;10.70;99.90;;;;;;5032767;28;19910;-79
2021/08/10 02:29:34;;;;;;;;;;;10.80;99.90;;;;;;5032942;28;19918;-79
2021/08/10 02:32:00;;;;;;;;;;;10.80;99.90;;;;;;5031427;28;19917;-79
2021/08/10 02:34:26;;;;;;;;;;;10.80;99.90;;;;;;5031676;28;19969;-78
2021/08/10 02:36:54;;;;;;;;;;;10.80;99.90;;;;;;5032570;28;19941;-79
2021/08/10 02:39:20;;;;;;;;;;;10.80;99.90;;;;;;5032959;28;19963;-79
2021/08/10 02:41:46;;;;;;;;;;;10.80;99.90;;;;;;5032548;28;19971;-79
2021/08/10 02:44:13;;;;;;;;;;;10.80;99.90;;;;;;5032841;28;20321;-79
2021/08/10 02:46:39;;;;;;;;;;;10.80;99.90;;;;;;5030943;28;19962;-79
2021/08/10 02:49:07;;;;;;;;;;;10.80;99.90;;;;;;5032678;28;19952;-79
2021/08/10 02:51:32;;;;;;;;;;;10.80;99.90;;;;;;5032594;28;19960;-79
2021/08/10 02:53:59;;;;;;;;;;;10.70;99.90;;;;;;5032666;28;19913;-79
2021/08/10 02:56:27;;;;;;;;;;;10.70;99.90;;;;;;5032246;28;19920;-79
2021/08/10 02:59:14;;;;;;;;;;;10.70;99.90;;;;;;5032397;28;20297;-79
2021/08/10 03:01:42;;;;;;;;;;;10.60;99.90;;;;;;5031178;28;19909;-79
2021/08/10 03:04:09;;;;;;;;;;;10.60;99.90;;;;;;5031156;28;20298;-79
2021/08/10 03:06:34;;;;;;;;;;;10.60;99.90;;;;;;5032354;28;19917;-79
2021/08/10 03:09:00;;;;;;;;;;;10.60;99.90;;;;;;5032283;28;19917;-79
2021/08/10 03:11:27;;;;;;;;;;;10.60;99.90;;;;;;5031836;28;19932;-79
2021/08/10 03:13:53;;;;;;;;;;;10.60;99.90;;;;;;5032127;28;19909;-79
2021/08/10 03:16:19;;;;;;;;;;;10.60;99.90;;;;;;5030635;28;19971;-79
2021/08/10 03:18:49;;;;;;;;;;;10.60;99.90;;;;;;5030796;28;20341;-79
2021/08/10 03:21:15;;;;;;;;;;;10.60;99.90;;;;;;5032055;28;19909;-78
2021/08/10 03:23:41;;;;;;;;;;;10.60;99.90;;;;;;5031988;28;19909;-79
2021/08/10 03:26:08;;;;;;;;;;;10.60;99.90;;;;;;5031490;28;19916;-79
2021/08/10 03:28:38;;;;;;;;;;;10.60;99.90;;;;;;5032372;28;19917;-79
2021/08/10 03:31:04;;;;;;;;;;;10.60;99.90;;;;;;5031765;28;20000;-78
2021/08/10 03:33:30;;;;;;;;;;;10.60;99.90;;;;;;5030586;28;20005;-79
2021/08/10 03:35:56;;;;;;;;;;;10.60;99.90;;;;;;5030551;28;20267;-79
2021/08/10 03:38:23;;;;;;;;;;;10.50;99.90;;;;;;5031519;28;20007;-78
2021/08/10 03:40:49;;;;;;;;;;;10.50;99.90;;;;;;5031227;28;19952;-78
2021/08/10 03:43:15;;;;;;;;;;;10.50;99.90;;;;;;5031617;28;19996;-79
2021/08/10 03:45:41;;;;;;;;;;;10.50;99.90;;;;;;5031756;28;19983;-79
2021/08/10 03:48:06;;;;;;;;;;;10.50;99.90;;;;;;5031208;28;19920;-79
2021/08/10 03:50:32;;;;;;;;;;;10.50;99.90;;;;;;5013798;28;19916;-79
2021/08/10 03:52:58;;;;;;;;;;;10.50;99.90;;;;;;5031571;28;19913;-79
2021/08/10 03:55:23;;;;;;;;;;;10.40;99.90;;;;;;5031331;28;19916;-78
2021/08/10 03:57:49;;;;;;;;;;;10.40;99.90;;;;;;5031102;28;19913;-79
2021/08/10 04:00:15;;;;;;;;;;;10.40;99.90;;;;;;5031401;28;19915;-79
2021/08/10 04:02:42;;;;;;;;;;;10.50;99.90;;;;;;5031494;28;20445;-78
2021/08/10 04:05:10;;;;;;;;;;;10.50;99.90;;;;;;5031925;28;19909;-76
2021/08/10 04:07:35;;;;;;;;;;;10.50;99.90;;;;;;5031098;28;19909;-76
2021/08/10 04:10:04;;;;;;;;;;;10.60;99.90;;;;;;5030963;28;20399;-76
2021/08/10 04:12:29;;;;;;;;;;;10.60;99.90;;;;;;5031102;28;20266;-76
2021/08/10 04:14:55;;;;;;;;;;;10.60;99.90;;;;;;5031285;28;19920;-76
2021/08/10 04:17:23;;;;;;;;;;;10.70;99.90;;;;;;5030926;28;19995;-76
2021/08/10 04:19:49;;;;;;;;;;;10.70;99.90;;;;;;5031138;28;19920;-77
2021/08/10 04:22:15;;;;;;;;;;;10.70;99.90;;;;;;5031207;28;19913;-76
2021/08/10 04:24:40;;;;;;;;;;;10.70;99.90;;;;;;5013314;28;19909;-76
2021/08/10 04:27:06;;;;;;;;;;;10.80;99.90;;;;;;5013054;28;19916;-76
2021/08/10 04:29:31;;;;;;;;;;;10.90;99.90;;;;;;5031107;28;20005;-76
2021/08/10 04:31:57;;;;;;;;;;;10.90;99.90;;;;;;5013311;28;19923;-76
2021/08/10 04:34:22;;;;;;;;;;;11.00;99.90;;;;;;5031029;28;19915;-77
2021/08/10 04:36:48;;;;;;;;;;;11.10;99.90;;;;;;5012926;28;19936;-76
2021/08/10 04:39:13;;;;;;;;;;;11.10;99.90;;;;;;5034322;28;19913;-76
2021/08/10 04:41:39;;;;;;;;;;;11.20;99.90;;;;;;5034586;28;19975;-76
2021/08/10 04:44:06;;;;;;;;;;;11.20;99.90;;;;;;5015274;28;20446;-76
2021/08/10 04:46:32;;;;;;;;;;;11.30;99.90;;;;;;5014778;28;20428;-76
2021/08/10 04:48:58;;;;;;;;;;;11.30;99.90;;;;;;4997453;28;19989;-78
2021/08/10 04:51:25;;;;;;;;;;;11.40;99.90;;;;;;5015013;28;19976;-78
2021/08/10 04:53:50;;;;;;;;;;;11.40;99.90;;;;;;5015064;28;19986;-78
2021/08/10 04:56:16;;;;;;;;;;;11.40;99.90;;;;;;4997065;28;19952;-79
2021/08/10 04:58:41;;;;;;;;;;;11.40;99.90;;;;;;5014951;28;19916;-78
2021/08/10 05:01:07;;;;;;;;;;;11.50;99.90;;;;;;4997307;28;20366;-78
2021/08/10 05:03:32;;;;;;;;;;;11.50;99.90;;;;;;5014793;28;20008;-78
2021/08/10 05:05:58;;;;;;;;;;;11.60;99.90;;;;;;4997186;28;19913;-79
2021/08/10 05:08:24;;;;;;;;;;;11.60;99.90;;;;;;5014427;28;19917;-78
2021/08/10 05:10:49;;;;;;;;;;;11.60;99.90;;;;;;5025747;28;19910;-78
2021/08/10 05:13:15;;;;;;;;;;;11.70;99.90;;;;;;5034390;28;19909;-78
2021/08/10 05:15:41;;;;;;;;;;;11.70;99.90;;;;;;5034432;28;19935;-79
2021/08/10 05:18:06;;;;;;;;;;;11.80;99.90;;;;;;5034152;28;19909;-79
2021/08/10 05:20:32;;;;;;;;;;;12.00;99.90;;;;;;5034245;28;19916;-77
2021/08/10 05:22:58;;;;;;;;;;;12.10;99.90;;;;;;5034185;28;19936;-76
2021/08/10 05:25:23;;;;;;;;;;;12.20;99.90;;;;;;5034270;28;19909;-76
2021/08/10 05:27:49;;;;;;;;;;;12.30;99.90;;;;;;5032500;28;19909;-76
2021/08/10 05:30:14;;;;;;;;;;;12.50;99.90;;;;;;5033967;28;19918;-76
2021/08/10 05:32:40;;;;;;;;;;;12.60;99.90;;;;;;5034277;28;19936;-76
2021/08/10 05:35:06;;;;;;;;;;;12.70;99.90;;;;;;5034223;28;19935;-76
2021/08/10 05:37:31;;;;;;;;;;;12.80;99.90;;;;;;5033804;28;19913;-76
2021/08/10 05:39:57;;;;;;;;;;;12.90;99.90;;;;;;5031481;28;20393;-77
2021/08/10 05:42:22;;;;;;;;;;;13.00;99.90;;;;;;5033901;28;19916;-77
2021/08/10 05:44:48;;;;;;;;;;;13.10;99.90;;;;;;5034056;28;19913;-77
2021/08/10 05:47:13;;;;;;;;;;;13.10;99.90;;;;;;5033600;28;19909;-77
2021/08/10 05:49:39;;;;;;;;;;;13.20;99.90;;;;;;5032545;28;19913;-77
2021/08/10 05:52:05;;;;;;;;;;;13.30;99.90;;;;;;5033694;28;20011;-77
2021/08/10 05:54:30;;;;;;;;;;;13.40;99.90;;;;;;5033773;28;19954;-77
2021/08/10 05:56:56;;;;;;;;;;;13.50;99.90;;;;;;5033473;28;19971;-77
2021/08/10 05:59:21;;;;;;;;;;;13.60;99.90;;;;;;5033822;28;19909;-77
2021/08/10 06:01:47;;;;;;;;;;;13.80;99.90;;;;;;5033672;28;19909;-77
2021/08/10 06:04:12;;;;;;;;;;;13.90;99.90;;;;;;5033759;28;20004;-77
2021/08/10 06:06:38;;;;;;;;;;;14.00;99.90;;;;;;5033216;28;20435;-77
2021/08/10 06:09:04;;;;;;;;;;;14.10;99.90;;;;;;5033468;28;20344;-77
2021/08/10 06:11:31;;;;;;;;;;;14.20;99.90;;;;;;5015429;28;20370;-76
2021/08/10 06:13:56;;;;;;;;;;;14.30;99.90;;;;;;5033462;28;19910;-77
2021/08/10 06:16:22;;;;;;;;;;;14.40;99.90;;;;;;5015339;28;19915;-77
2021/08/10 06:18:47;;;;;;;;;;;14.50;99.90;;;;;;5033367;28;20382;-77
2021/08/10 06:21:13;;;;;;;;;;;14.60;99.90;;;;;;5033111;28;19988;-78
2021/08/10 06:23:39;;;;;;;;;;;14.70;99.90;;;;;;5033421;28;19952;-78
2021/08/10 06:26:04;;;;;;;;;;;14.90;99.90;;;;;;5032864;28;20003;-78
2021/08/10 06:28:30;;;;;;;;;;;15.00;99.90;;;;;;5015358;28;19913;-77
2021/08/10 06:30:55;;;;;;;;;;;15.10;99.90;;;;;;5032971;28;19917;-78
2021/08/10 06:33:21;;;;;;;;;;;15.20;99.90;;;;;;5033212;28;19909;-78
2021/08/10 06:35:46;;;;;;;;;;;15.30;99.90;;;;;;5015097;28;19987;-77
2021/08/10 06:38:13;;;;;;;;;;;15.50;99.90;;;;;;5031932;28;21335;-78
2021/08/10 06:40:39;;;;;;;;;;;15.60;99.90;;;;;;5032034;28;19909;-78
2021/08/10 06:43:05;;;;;;;;;;;15.70;99.90;;;;;;5032556;28;19928;-78
2021/08/10 06:45:30;;;;;;;;;;;15.90;99.90;;;;;;5033068;28;19989;-77
2021/08/10 06:47:56;;;;;;;;;;;16.10;99.90;;;;;;5032323;28;19915;-78
2021/08/10 06:50:21;;;;;;;;;;;16.30;99.90;;;;;;5032549;28;19909;-78
2021/08/10 06:52:47;;;;;;;;;;;16.40;99.90;;;;;;5032435;28;19909;-78
2021/08/10 06:55:13;;;;;;;;;;;16.60;99.90;;;;;;5014953;28;19909;-78
2021/08/10 06:57:39;;;;;;;;;;;16.70;99.90;;;;;;5032276;28;19944;-78
2021/08/10 07:00:06;;;;;;;;;;;16.90;99.90;;;;;;5032178;28;20274;-78
2021/08/10 07:02:31;;;;;;;;;;;17.20;99.90;;;;;;5014673;28;19915;-78
2021/08/10 07:04:57;;;;;;;;;;;17.40;99.90;;;;;;5014562;28;20003;-78
2021/08/10 07:07:22;;;;;;;;;;;17.70;99.90;;;;;;5032025;28;19916;-78
2021/08/10 07:09:48;;;;;;;;;;;18.10;99.90;;;;;;5032056;28;19917;-78
2021/08/10 07:12:13;;;;;;;;;;;18.30;99.90;;;;;;5032205;28;19916;-78
2021/08/10 07:14:39;;;;;;;;;;;18.50;99.90;;;;;;5031034;28;19915;-78
2021/08/10 07:17:04;;;;;;;;;;;18.70;99.90;;;;;;5030554;28;19957;-79
2021/08/10 07:19:30;;;;;;;;;;;19.00;99.90;;;;;;5032063;28;19952;-78
2021/08/10 07:21:55;;;;;;;;;;;19.40;99.90;;;;;;5032220;28;19910;-77
2021/08/10 07:24:21;;;;;;;;;;;19.60;99.90;;;;;;5030881;28;19909;-78
2021/08/10 07:26:47;;;;;;;;;;;19.80;99.90;;;;;;5031674;28;19909;-78
2021/08/10 07:29:12;;;;;;;;;;;19.90;99.90;;;;;;5031950;28;19920;-79
2021/08/10 07:31:38;;;;;;;;;;;20.10;99.90;;;;;;5031916;28;19967;-78
2021/08/10 07:34:04;;;;;;;;;;;20.20;99.90;;;;;;5032225;28;19909;-79
2021/08/10 07:36:29;;;;;;;;;;;20.40;99.90;;;;;;5031675;28;19935;-79
2021/08/10 07:38:55;;;;;;;;;;;20.60;99.90;;;;;;5031859;28;20281;-79
2021/08/10 07:41:20;;;;;;;;;;;20.70;99.90;;;;;;5031439;28;19959;-79
2021/08/10 07:43:46;;;;;;;;;;;20.70;99.90;;;;;;5013948;28;19940;-79
2021/08/10 07:46:11;;;;;;;;;;;20.80;99.90;;;;;;5031336;28;20031;-79
2021/08/10 07:48:37;;;;;;;;;;;20.80;99.90;;;;;;5031352;28;19969;-78
2021/08/10 07:51:02;;;;;;;;;;;20.60;99.90;;;;;;5031445;28;19909;-78
2021/08/10 07:53:28;;;;;;;;;;;20.40;99.90;;;;;;5031642;28;19913;-79
2021/08/10 07:55:53;;;;;;;;;;;20.30;99.90;;;;;;5031537;28;19924;-79
2021/08/10 07:58:19;;;;;;;;;;;20.30;99.90;;;;;;5031731;28;19948;-79
2021/08/10 08:00:44;;;;;;;;;;;20.10;99.90;;;;;;5031485;28;19913;-79
2021/08/10 08:03:10;;;;;;;;;;;20.00;99.90;;;;;;5031206;28;19955;-79
2021/08/10 08:05:36;;;;;;;;;;;20.00;99.90;;;;;;5031417;28;19909;-79
2021/08/10 08:08:01;;;;;;;;;;;20.10;99.90;;;;;;5031060;28;20327;-79
2021/08/10 08:10:27;;;;;;;;;;;20.30;99.90;;;;;;5013527;28;19924;-78
2021/08/10 08:12:52;;;;;;;;;;;20.50;99.90;;;;;;5030446;28;20381;-78
2021/08/10 08:15:18;;;;;;;;;;;20.80;99.90;;;;;;5031681;28;19913;-78
2021/08/10 08:17:44;;;;;;;;;;;21.10;99.90;;;;;;5030949;28;19916;-78
2021/08/10 08:20:09;;;;;;;;;;;21.20;99.90;;;;;;5031117;28;20445;-78
2021/08/10 08:22:35;;;;;;;;;;;21.40;99.90;;;;;;5031395;28;19909;-77
2021/08/10 08:25:01;;;;;;;;;;;21.20;99.90;;;;;;5031160;28;19909;-78
2021/08/10 08:27:26;;;;;;;;;;;21.30;99.90;;;;;;5012981;28;19909;-78
2021/08/10 08:29:52;;;;;;;;;;;21.50;99.90;;;;;;5010826;28;19913;-78
2021/08/10 08:32:17;;;;;;;;;;;21.60;99.90;;;;;;5010026;28;19917;-78
2021/08/10 08:34:43;;;;;;;;;;;21.70;99.90;;;;;;5027832;28;20536;-78
2021/08/10 08:37:08;;;;;;;;;;;21.90;99.90;;;;;;5028393;28;19913;-78
2021/08/10 08:39:34;;;;;;;;;;;21.90;99.90;;;;;;5028658;28;20382;-78
2021/08/10 08:42:00;;;;;;;;;;;22.10;99.90;;;;;;5028219;28;19997;-78
2021/08/10 08:44:29;;;;;;;;;;;22.00;99.90;;;;;;5029532;28;20370;-78
2021/08/10 08:46:55;;;;;;;;;;;22.00;99.90;;;;;;5030665;28;19916;-78
2021/08/10 08:49:21;;;;;;;;;;;21.90;99.90;;;;;;5029648;28;20301;-77
2021/08/10 08:51:47;;;;;;;;;;;21.70;99.90;;;;;;5030969;28;19916;-77
2021/08/10 08:54:13;;;;;;;;;;;21.60;99.90;;;;;;5031083;28;19913;-79
2021/08/10 08:56:38;;;;;;;;;;;21.80;99.90;;;;;;5030723;28;20432;-78
2021/08/10 08:59:04;;;;;;;;;;;22.20;99.90;;;;;;5031457;28;19909;-78
2021/08/10 09:01:30;;;;;;;;;;;22.60;99.90;;;;;;5030744;28;19963;-79
2021/08/10 09:03:55;;;;;;;;;;;23.00;99.90;;;;;;5030901;28;20000;-78
2021/08/10 09:06:22;;;;;;;;;;;23.10;99.90;;;;;;5030575;28;20434;-78
2021/08/10 09:08:51;;;;;;;;;;;23.50;99.90;;;;;;5029565;28;20389;-78
2021/08/10 09:11:19;;;;;;;;;;;23.60;99.90;;;;;;5030329;28;20382;-78
2021/08/10 09:13:58;;;;;;;;;;;23.50;99.90;;;;;;5013172;28;20324;-79
2021/08/10 09:16:23;;;;;;;;;;;23.60;99.90;;;;;;5030818;28;20278;-79
2021/08/10 09:18:49;;;;;;;;;;;23.90;99.90;;;;;;5030682;28;19910;-78
2021/08/10 09:21:16;;;;;;;;;;;24.00;99.90;;;;;;5030588;28;20016;-79
2021/08/10 09:23:52;;;;;;;;;;;24.30;99.90;;;;;;5031408;28;20286;-79
2021/08/10 09:26:38;;;;;;;;;;;24.60;99.90;;;;;;5033928;28;19909;-78
2021/08/10 09:29:04;;;;;;;;;;;24.90;99.90;;;;;;5033706;28;19932;-79
2021/08/10 09:31:29;;;;;;;;;;;25.20;99.90;;;;;;5034132;28;19917;-78
2021/08/10 09:33:55;;;;;;;;;;;25.50;99.90;;;;;;5016398;28;20313;-78
2021/08/10 09:36:21;;;;;;;;;;;25.20;99.90;;;;;;5033740;28;20004;-78
2021/08/10 09:38:47;;;;;;;;;;;25.40;99.90;;;;;;5034176;28;20484;-78
2021/08/10 09:41:14;;;;;;;;;;;25.40;99.90;;;;;;5033569;28;19916;-78
2021/08/10 09:43:40;;;;;;;;;;;25.50;99.90;;;;;;5033910;28;19916;-78
2021/08/10 09:46:06;;;;;;;;;;;25.50;99.90;;;;;;5033913;28;20308;-78
2021/08/10 09:48:32;;;;;;;;;;;25.60;99.90;;;;;;5033665;28;19927;-78
2021/08/10 09:51:04;;;;;;;;;;;25.30;99.70;;;;;;5033825;28;19948;-79
2021/08/10 09:53:30;;;;;;;;;;;25.40;99.90;;;;;;5033748;28;19909;-79
2021/08/10 09:55:56;;;;;;;;;;;25.70;99.90;;;;;;5033679;28;20333;-79
2021/08/10 09:58:22;;;;;;;;;;;25.90;99.90;;;;;;5033507;28;19936;-79
2021/08/10 10:00:49;;;;;;;;;;;25.90;98.60;;;;;;5015841;28;19909;-79
2021/08/10 10:03:25;;;;;;;;;;;26.10;98.20;;;;;;5015708;28;19948;-79
2021/08/10 10:05:51;;;;;;;;;;;26.30;99.90;;;;;;5033483;28;19910;-79
2021/08/10 10:08:23;;;;;;;;;;;26.40;99.70;;;;;;5032979;28;19963;-79
2021/08/10 10:10:51;;;;;;;;;;;26.30;99.30;;;;;;5033262;28;19913;-79
2021/08/10 10:13:17;;;;;;;;;;;26.00;99.50;;;;;;5033313;28;20218;-79
2021/08/10 10:15:43;;;;;;;;;;;26.20;99.90;;;;;;5033456;28;19916;-80
2021/08/10 10:18:10;;;;;;;;;;;26.20;99.90;;;;;;5032938;28;19913;-79
2021/08/10 10:20:37;;;;;;;;;;;26.10;98.80;;;;;;5015397;28;20282;-79
2021/08/10 10:23:03;;;;;;;;;;;26.10;98.20;;;;;;5033231;28;20004;-80
2021/08/10 10:25:30;;;;;;;;;;;26.20;99.10;;;;;;5015461;28;19998;-79
2021/08/10 10:27:55;;;;;;;;;;;25.90;99.10;;;;;;5032993;28;19968;-79
2021/08/10 10:30:21;;;;;;;;;;;25.70;98.80;;;;;;5015056;28;20386;-79
2021/08/10 10:32:46;;;;;;;;;;;25.50;98.10;;;;;;5033004;28;19916;-79
2021/08/10 10:35:12;;;;;;;;;;;25.30;99.70;;;;;;5032241;28;19909;-80
2021/08/10 10:37:39;;;;;;;;;;;25.30;98.80;;;;;;5032604;28;20004;-80
2021/08/10 10:40:05;;;;;;;;;;;25.60;99.90;;;;;;5015347;28;19913;-80
2021/08/10 10:42:31;;;;;;;;;;;25.90;99.80;;;;;;5032897;28;19909;-80
2021/08/10 10:44:57;;;;;;;;;;;26.00;99.30;;;;;;5033216;28;19970;-80
2021/08/10 10:47:23;;;;;;;;;;;26.40;99.40;;;;;;5032511;28;20274;-80
2021/08/10 10:50:08;;;;;;;;;;;26.50;98.30;;;;;;5032752;28;19952;-80
2021/08/10 10:52:34;;;;;;;;;;;26.40;97.90;;;;;;5032790;28;19919;-80
2021/08/10 10:55:01;;;;;;;;;;;26.50;97.80;;;;;;5032707;28;19995;-79
2021/08/10 10:57:32;;;;;;;;;;;26.60;95.50;;;;;;5032307;28;20396;-79
2021/08/10 11:00:04;;;;;;;;;;;26.70;97.10;;;;;;5033220;28;19913;-80
2021/08/10 11:02:30;;;;;;;;;;;27.00;96.20;;;;;;5033163;28;19967;-79
2021/08/10 11:05:08;;;;;;;;;;;26.70;96.00;;;;;;5033640;28;19915;-80
2021/08/10 11:07:34;;;;;;;;;;;26.70;96.20;;;;;;5032441;28;19909;-80
2021/08/10 11:10:00;;;;;;;;;;;26.40;95.40;;;;;;5033546;28;19928;-80
2021/08/10 11:12:45;;;;;;;;;;;26.40;96.20;;;;;;5033051;28;20395;-80
2021/08/10 11:15:14;;;;;;;;;;;26.40;95.90;;;;;;5016131;28;19909;-80
2021/08/10 11:17:39;;;;;;;;;;;26.70;95.20;;;;;;5032869;28;19932;-80
2021/08/10 11:20:21;;;;;;;;;;;26.80;96.50;;;;;;5033603;28;19910;-80
2021/08/10 11:22:46;;;;;;;;;;;27.60;96.10;;;;;;5033021;28;19996;-80
2021/08/10 11:25:23;;;;;;;;;;;27.90;94.60;;;;;;5033238;28;19948;-80
2021/08/10 11:27:48;;;;;;;;;;;28.10;95.00;;;;;;5032609;28;19909;-80
2021/08/10 11:30:20;;;;;;;;;;;28.30;93.00;;;;;;5014943;28;20075;-80
2021/08/10 11:32:46;;;;;;;;;;;28.00;90.90;;;;;;5033124;28;19909;-80
2021/08/10 11:35:26;;;;;;;;;;;28.00;96.40;;;;;;5033108;28;19909;-80
2021/08/10 11:38:12;;;;;;;;;;;28.40;95.30;;;;;;5032862;28;19996;-80
2021/08/10 11:40:57;;;;;;;;;;;28.80;91.90;;;;;;5032504;28;19909;-80
2021/08/10 11:43:33;;;;;;;;;;;29.00;92.60;;;;;;5032068;28;19955;-80
2021/08/10 11:45:58;;;;;;;;;;;28.90;90.10;;;;;;5032545;28;20297;-80
2021/08/10 11:48:24;;;;;;;;;;;29.00;91.90;;;;;;5032435;28;19958;-79
2021/08/10 11:50:49;;;;;;;;;;;28.50;90.20;;;;;;5031754;28;19995;-79
2021/08/10 11:53:27;;;;;;;;;;;28.70;91.70;;;;;;5030452;28;20373;-79
2021/08/10 11:55:53;;;;;;;;;;;28.80;90.40;;;;;;5030689;28;20287;-79
2021/08/10 11:58:18;;;;;;;;;;;28.80;91.40;;;;;;5031537;28;19924;-79
2021/08/10 12:00:45;;;;;;;;;;;28.80;90.10;;;;;;5031785;28;19963;-79
2021/08/10 12:03:11;;;;;;;;;;;28.40;90.40;;;;;;5030463;28;20344;-80
2021/08/10 12:05:36;;;;;;;;;;;28.60;91.20;;;;;;5031660;28;19909;-79
2021/08/10 12:08:04;;;;;;;;;;;28.50;90.40;;;;;;5031229;28;19963;-79
2021/08/10 12:10:31;;;;;;;;;;;28.30;89.90;;;;;;5031155;28;19914;-79
2021/08/10 12:12:58;;;;;;;;;;;28.00;91.00;;;;;;5021728;28;20396;-79
2021/08/10 12:15:34;;;;;;;;;;;27.70;91.60;;;;;;5031375;28;19909;-79
2021/08/10 12:17:59;;;;;;;;;;;27.40;92.40;;;;;;5031099;28;19974;-79
2021/08/10 12:20:25;;;;;;;;;;;27.40;91.80;;;;;;5031309;28;19989;-80
2021/08/10 12:23:04;;;;;;;;;;;27.70;92.30;;;;;;5031372;28;19909;-79
2021/08/10 12:25:29;;;;;;;;;;;27.80;92.10;;;;;;5031769;28;19909;-80
2021/08/10 12:28:05;;;;;;;;;;;28.30;92.00;;;;;;5031283;28;19909;-80
2021/08/10 12:30:32;;;;;;;;;;;28.60;92.90;;;;;;5029980;28;19917;-79
2021/08/10 12:33:10;;;;;;;;;;;28.60;89.60;;;;;;5029838;28;20385;-79
2021/08/10 12:35:36;;;;;;;;;;;28.50;91.40;;;;;;5031330;28;19917;-79
2021/08/10 12:38:02;;;;;;;;;;;27.80;91.00;;;;;;5030960;28;20428;-79
2021/08/10 12:40:28;;;;;;;;;;;27.50;92.50;;;;;;5030863;28;20333;-79
2021/08/10 12:42:54;;;;;;;;;;;27.50;94.40;;;;;;5013295;28;19909;-79
2021/08/10 12:45:19;;;;;;;;;;;27.30;91.90;;;;;;5031081;28;19956;-79
2021/08/10 12:47:45;;;;;;;;;;;27.40;94.30;;;;;;5030745;28;19909;-79
2021/08/10 12:50:24;;;;;;;;;;;27.20;93.00;;;;;;5031051;28;19917;-79
2021/08/10 12:52:49;;;;;;;;;;;26.70;93.10;;;;;;5030907;28;20277;-79
2021/08/10 12:55:15;;;;;;;;;;;26.00;93.80;;;;;;5031111;28;19916;-79
2021/08/10 12:57:41;;;;;;;;;;;25.30;94.80;;;;;;5012884;28;19916;-79
2021/08/10 13:00:14;;;;;;;;;;;25.10;95.50;;;;;;5034244;28;19944;-79
2021/08/10 13:02:49;;;;;;;;;;;25.20;97.00;;;;;;5035358;28;20362;-79
2021/08/10 13:05:15;;;;;;;;;;;25.40;95.80;;;;;;5017081;28;20192;-79
2021/08/10 13:07:42;;;;;;;;;;;25.30;94.70;;;;;;5034526;28;19960;-79
2021/08/10 13:10:09;;;;;;;;;;;25.10;96.10;;;;;;5034773;28;19913;-79
2021/08/10 13:12:51;;;;;;;;;;;25.50;95.60;;;;;;5020994;28;20325;-80
2021/08/10 13:15:16;;;;;;;;;;;25.80;95.70;;;;;;5034940;28;19913;-79
2021/08/10 13:17:43;;;;;;;;;;;25.70;95.60;;;;;;5032973;28;20274;-79
2021/08/10 13:20:14;;;;;;;;;;;25.60;95.40;;;;;;5033715;28;20010;-80
2021/08/10 13:22:42;;;;;;;;;;;26.10;95.40;;;;;;5034629;28;19948;-79
2021/08/10 13:25:09;;;;;;;;;;;26.40;94.80;;;;;;5034447;28;19909;-79
2021/08/10 13:27:34;;;;;;;;;;;26.70;93.40;;;;;;5033984;28;20432;-79
2021/08/10 13:30:00;;;;;;;;;;;26.70;93.30;;;;;;5032844;28;19913;-79
2021/08/10 13:32:26;;;;;;;;;;;26.80;94.20;;;;;;5034731;28;19920;-80
2021/08/10 13:34:54;;;;;;;;;;;27.20;96.50;;;;;;5033198;28;19910;-80
2021/08/10 13:37:20;;;;;;;;;;;27.20;95.10;;;;;;5032574;28;20348;-79
2021/08/10 13:39:46;;;;;;;;;;;27.30;93.20;;;;;;5034160;28;20000;-79
2021/08/10 13:42:12;;;;;;;;;;;27.40;95.00;;;;;;5034489;28;19917;-80
2021/08/10 13:44:37;;;;;;;;;;;27.60;95.20;;;;;;5035208;28;19909;-80
2021/08/10 13:47:03;;;;;;;;;;;27.80;94.80;;;;;;5035497;28;20322;-80
2021/08/10 13:49:28;;;;;;;;;;;27.80;93.80;;;;;;5034529;28;19913;-79
2021/08/10 13:51:54;;;;;;;;;;;27.90;92.30;;;;;;5033739;28;20051;-78
2021/08/10 13:54:19;;;;;;;;;;;28.30;94.40;;;;;;5033772;28;20294;-78
2021/08/10 13:56:45;;;;;;;;;;;29.00;93.20;;;;;;5033463;28;19909;-79
2021/08/10 13:59:10;;;;;;;;;;;29.40;92.40;;;;;;5034847;28;20367;-80
2021/08/10 14:04:10;;;;;;;;;;;29.40;90.50;;;;;;5033947;28;19909;-79
2021/08/10 14:06:36;;;;;;;;;;;28.50;91.60;;;;;;5015682;28;20267;-80
2021/08/10 14:09:02;;;;;;;;;;;27.70;92.00;;;;;;5016366;28;19952;-79
2021/08/10 14:11:27;;;;;;;;;;;27.00;92.80;;;;;;5038345;28;19909;-79
2021/08/10 14:13:53;;;;;;;;;;;26.50;93.30;;;;;;5017736;28;19909;-80
2021/08/10 14:16:21;;;;;;;;;;;25.90;94.10;;;;;;5033199;28;20365;-79
2021/08/10 14:18:50;;;;;;;;;;;25.70;95.20;;;;;;5016085;28;19909;-80